Time;durP1;ratioP1;P1;durP2;ratioP2;P2;SDS_P1;SDS_P2;PMS_P1;PMS_P2;Temp;Humidity;BMP_temperature;BMP_pressure;BME280_temperature;BME280_humidity;BME280_pressure;Samples;Min_cycle;Max_cycle;Signal;HPM_P1;HPM_P2
2023/04/01 00:00:22;;;;;;;15.00;7.85;;;;;;;3.65;86.69;98079.66;5069991;28;20723;-41
2023/04/01 00:02:48;;;;;;;15.25;8.00;;;;;;;3.62;86.70;98068.63;5068684;28;20051;-40
2023/04/01 00:05:16;;;;;;;13.48;7.63;;;;;;;3.67;86.79;98077.00;5059597;28;20079;-41
2023/04/01 00:07:42;;;;;;;16.55;8.05;;;;;;;3.68;86.70;98076.13;5086209;28;20036;-40
2023/04/01 00:10:11;;;;;;;13.77;7.32;;;;;;;3.55;86.53;98041.47;5069109;28;20050;-41
2023/04/01 00:12:40;;;;;;;13.25;7.30;;;;;;;3.71;86.68;98076.03;5067876;28;20060;-43
2023/04/01 00:15:08;;;;;;;14.25;7.47;;;;;;;3.71;86.55;98073.47;5069727;28;20106;-39
2023/04/01 00:17:34;;;;;;;13.95;7.45;;;;;;;3.71;86.44;98074.31;5050955;28;20093;-40
2023/04/01 00:20:00;;;;;;;13.57;7.78;;;;;;;3.70;86.66;98075.19;5068124;28;20043;-40
2023/04/01 00:22:27;;;;;;;17.30;7.68;;;;;;;3.67;86.54;98067.56;5043940;28;20036;-40
2023/04/01 00:24:53;;;;;;;13.98;7.57;;;;;;;3.69;86.94;98068.38;5081688;28;20033;-41
2023/04/01 00:27:20;;;;;;;17.63;8.13;;;;;;;3.70;86.48;98072.63;5051423;28;20147;-39
2023/04/01 00:29:47;;;;;;;15.50;7.57;;;;;;;3.71;86.46;98070.91;5085017;28;20139;-40
2023/04/01 00:32:14;;;;;;;16.60;8.32;;;;;;;3.68;86.63;98058.97;5051575;28;20051;-40
2023/04/01 00:34:41;;;;;;;16.02;7.05;;;;;;;3.71;86.83;98070.91;5067367;28;20079;-39
2023/04/01 00:37:08;;;;;;;15.73;8.00;;;;;;;3.70;86.60;98064.91;5050568;28;20064;-40
2023/04/01 00:39:34;;;;;;;15.10;7.65;;;;;;;3.36;86.68;98003.50;5084622;28;20036;-40
2023/04/01 00:42:01;;;;;;;14.85;7.63;;;;;;;3.72;86.72;98059.72;5084396;28;20528;-40
2023/04/01 00:44:29;;;;;;;18.85;8.27;;;;;;;3.71;86.81;98063.19;5084162;28;20036;-40
2023/04/01 00:46:56;;;;;;;13.00;7.22;;;;;;;3.46;86.61;98024.59;5068905;28;20037;-40
2023/04/01 00:49:25;;;;;;;14.85;8.25;;;;;;;3.66;86.77;98058.22;5067601;28;20040;-41
2023/04/01 00:51:54;;;;;;;14.40;7.82;;;;;;;3.64;86.81;98052.28;5067201;28;20463;-40
2023/04/01 00:54:21;;;;;;;15.13;7.30;;;;;;;3.64;86.67;98059.97;5050633;28;20125;-40
2023/04/01 00:56:51;;;;;;;17.65;7.75;;;;;;;3.42;86.77;98023.88;5068831;28;20033;-40
2023/04/01 00:59:23;;;;;;;14.75;7.50;;;;;;;3.65;86.81;98060.81;5050993;28;20094;-40
2023/04/01 01:01:50;;;;;;;12.98;6.93;;;;;;;3.68;86.80;98055.56;5067371;28;20049;-39
2023/04/01 01:04:32;;;;;;;17.95;8.10;;;;;;;3.70;86.87;98052.06;5066953;28;20487;-40
2023/04/01 01:07:17;;;;;;;16.65;8.45;;;;;;;3.74;87.28;98055.38;5096452;28;20101;-40
2023/04/01 01:10:09;;;;;;;13.65;8.23;;;;;;;3.78;87.18;98057.78;5067043;28;20074;-41
2023/04/01 01:12:43;;;;;;;13.10;7.10;;;;;;;3.59;86.97;98019.91;5050149;28;20086;-41
2023/04/01 01:15:30;;;;;;;13.70;7.20;;;;;;;3.78;86.72;98050.06;5068586;28;20144;-41
2023/04/01 01:18:15;;;;;;;13.88;6.97;;;;;;;3.74;86.94;98052.81;5051176;28;20040;-40
2023/04/01 01:20:48;;;;;;;14.02;7.15;;;;;;;3.75;86.61;98055.34;5057625;28;20135;-39
2023/04/01 01:23:41;;;;;;;16.63;8.45;;;;;;;3.77;86.75;98058.66;5066159;28;20040;-41
2023/04/01 01:26:58;;;;;;;13.15;7.18;;;;;;;3.61;86.83;98033.56;5067001;28;20040;-40
2023/04/01 01:29:49;;;;;;;14.02;7.63;;;;;;;3.79;86.48;98068.91;5045629;28;20226;-40
2023/04/01 01:32:33;;;;;;;12.27;7.43;;;;;;;3.76;86.84;98057.03;5065692;28;20044;-40
2023/04/01 01:35:28;;;;;;;14.55;7.80;;;;;;;3.73;86.96;98057.09;5068193;28;20054;-41
2023/04/01 01:38:16;;;;;;;14.90;8.02;;;;;;;3.72;87.01;98062.28;5066172;28;20085;-40
2023/04/01 01:40:53;;;;;;;14.95;7.40;;;;;;;3.73;87.02;98063.97;5066917;28;20045;-39
2023/04/01 01:43:24;;;;;;;13.80;7.43;;;;;;;3.77;87.53;98062.97;5065329;28;20077;-39
2023/04/01 01:45:54;;;;;;;13.88;7.63;;;;;;;3.77;87.10;98058.66;5070333;28;20055;-40
2023/04/01 01:48:20;;;;;;;13.90;7.75;;;;;;;3.76;87.08;98059.59;5086376;28;20090;-40
2023/04/01 01:50:47;;;;;;;13.90;7.65;;;;;;;3.76;86.82;98061.31;5070144;28;20044;-40
2023/04/01 01:53:14;;;;;;;15.55;8.30;;;;;;;3.74;87.17;98066.50;5077986;28;20047;-38
2023/04/01 01:55:43;;;;;;;14.63;7.65;;;;;;;3.59;86.95;98051.59;5078620;28;20043;-39
2023/04/01 01:58:40;;;;;;;14.65;8.40;;;;;;;3.64;87.23;98059.97;5069825;28;20084;-40
2023/04/01 02:01:19;;;;;;;17.02;8.82;;;;;;;3.58;87.33;98064.47;5052442;28;20052;-40
2023/04/01 02:03:45;;;;;;;15.35;8.05;;;;;;;3.27;87.41;98013.25;5090776;28;20083;-40
2023/04/01 02:06:16;;;;;;;16.08;8.15;;;;;;;3.64;87.15;98057.41;5055551;28;20406;-39
2023/04/01 02:08:56;;;;;;;16.88;8.35;;;;;;;3.64;87.51;98057.41;5049488;28;20416;-39
2023/04/01 02:11:30;;;;;;;16.17;8.23;;;;;;;3.69;87.06;98063.25;5033145;28;20549;-40
2023/04/01 02:14:03;;;;;;;13.82;7.82;;;;;;;3.62;87.05;98042.91;5066210;28;20089;-40
2023/04/01 02:17:06;;;;;;;14.82;7.72;;;;;;;3.45;86.83;98034.94;5052650;28;20106;-46
2023/04/01 02:19:37;;;;;;;15.02;7.38;;;;;;;3.72;87.25;98067.41;5049552;28;20579;-41
2023/04/01 02:22:06;;;;;;;18.13;8.48;;;;;;;3.74;87.27;98071.63;5016321;28;20432;-39
2023/04/01 02:24:33;;;;;;;15.13;7.78;;;;;;;3.75;87.35;98070.75;5064494;28;20496;-40
2023/04/01 02:26:59;;;;;;;16.98;9.00;;;;;;;3.67;87.50;98066.72;5048995;28;20057;-41
2023/04/01 02:29:27;;;;;;;19.13;8.95;;;;;;;3.70;87.58;98075.19;5082864;28;20047;-40
2023/04/01 02:31:54;;;;;;;16.95;8.93;;;;;;;3.70;87.46;98070.06;5049883;28;20044;-39
2023/04/01 02:34:21;;;;;;;13.85;7.97;;;;;;;3.56;87.40;98038.00;5082882;28;20032;-40
2023/04/01 02:36:48;;;;;;;16.73;8.70;;;;;;;3.63;87.07;98047.16;5049449;28;20048;-38
2023/04/01 02:39:14;;;;;;;19.92;8.75;;;;;;;3.85;87.36;98071.28;5082210;28;20077;-39
2023/04/01 02:41:45;;;;;;;19.20;9.20;;;;;;;3.82;86.89;98063.69;5065985;28;20237;-40
2023/04/01 02:44:13;;;;;;;19.88;9.30;;;;;;;3.88;86.96;98078.03;5066293;28;20140;-40
2023/04/01 02:46:40;;;;;;;18.90;10.10;;;;;;;3.75;87.16;98052.75;5049639;28;20048;-40
2023/04/01 02:49:06;;;;;;;16.33;8.70;;;;;;;3.76;86.77;98058.75;5049509;28;20044;-41
2023/04/01 02:51:33;;;;;;;17.73;9.55;;;;;;;3.72;86.58;98055.41;5065918;28;20060;-41
2023/04/01 02:53:59;;;;;;;20.63;9.35;;;;;;;3.73;86.97;98062.25;5065597;28;20040;-41
2023/04/01 02:56:25;;;;;;;20.95;9.10;;;;;;;3.91;87.14;98089.06;5066042;28;20131;-40
2023/04/01 02:58:52;;;;;;;17.33;9.13;;;;;;;3.87;86.88;98081.53;5082994;28;20044;-40
2023/04/01 03:01:18;;;;;;;16.02;8.73;;;;;;;3.89;87.21;98084.88;5069805;28;20105;-40
2023/04/01 03:03:44;;;;;;;14.90;7.82;;;;;;;3.86;86.95;98085.81;5086034;28;20060;-39
2023/04/01 03:06:13;;;;;;;21.73;9.57;;;;;;;3.90;87.23;98084.81;5079264;28;20056;-40
2023/04/01 03:08:39;;;;;;;15.90;8.40;;;;;;;3.84;86.94;98085.88;5076085;28;20054;-39
2023/04/01 03:11:05;;;;;;;15.40;8.25;;;;;;;3.77;87.24;98086.09;5035882;28;20036;-40
2023/04/01 03:13:35;;;;;;;16.85;8.13;;;;;;;3.53;87.29;98043.22;5069320;28;20040;-39
2023/04/01 03:16:01;;;;;;;14.00;7.30;;;;;;;3.66;87.46;98060.78;5086422;28;20044;-39
2023/04/01 03:18:27;;;;;;;16.05;8.70;;;;;;;3.73;87.45;98094.81;5069526;28;20040;-40
2023/04/01 03:20:53;;;;;;;15.82;8.02;;;;;;;3.77;87.58;98099.78;5068762;28;20074;-39
2023/04/01 03:23:20;;;;;;;17.52;8.77;;;;;;;3.72;87.60;98095.69;5068841;28;20464;-39
2023/04/01 03:25:47;;;;;;;16.25;8.10;;;;;;;3.77;87.97;98099.78;5052891;28;20040;-40
2023/04/01 03:28:14;;;;;;;18.60;8.80;;;;;;;3.65;87.90;98096.78;5069185;28;20878;-41
2023/04/01 03:30:40;;;;;;;15.70;8.43;;;;;;;3.64;88.54;98100.25;5052726;28;20036;-40
2023/04/01 03:33:07;;;;;;;15.68;7.82;;;;;;;3.67;88.81;98095.84;5085966;28;20074;-40
2023/04/01 03:35:35;;;;;;;17.20;8.35;;;;;;;3.59;88.40;98072.13;5068165;28;20097;-40
2023/04/01 03:38:01;;;;;;;14.52;7.78;;;;;;;3.76;88.12;98108.41;5068991;28;20598;-40
2023/04/01 03:40:27;;;;;;;14.90;8.43;;;;;;;3.72;88.74;98111.09;5069025;28;20132;-41
2023/04/01 03:42:53;;;;;;;18.15;8.93;;;;;;;3.76;88.79;98115.28;5068930;28;20390;-40
2023/04/01 03:45:19;;;;;;;16.02;7.70;;;;;;;3.63;88.53;98094.25;5067886;28;20072;-41
2023/04/01 03:47:45;;;;;;;21.15;8.80;;;;;;;3.80;88.57;98122.84;5068840;28;20527;-41
2023/04/01 03:50:11;;;;;;;19.40;9.90;;;;;;;3.87;88.66;98125.22;5068120;28;20048;-40
2023/04/01 03:52:37;;;;;;;16.10;8.63;;;;;;;3.65;88.62;98096.78;5068472;28;20037;-41
2023/04/01 03:55:04;;;;;;;17.45;10.35;;;;;;;3.75;88.68;98121.31;5019148;28;20573;-40
2023/04/01 03:57:33;;;;;;;17.75;8.65;;;;;;;3.60;88.34;98111.53;5068741;28;20053;-40
2023/04/01 04:00:08;;;;;;;16.95;8.23;;;;;;;3.68;88.55;98140.38;5051641;28;20494;-40
2023/04/01 04:02:39;;;;;;;16.15;8.85;;;;;;;3.69;88.84;98132.63;5052236;28;20060;-40
2023/04/01 04:05:07;;;;;;;16.88;8.25;;;;;;;3.73;88.80;98141.06;5071106;28;20062;-40
2023/04/01 04:07:35;;;;;;;17.83;8.68;;;;;;;3.76;88.60;98140.97;5068334;28;20129;-40
2023/04/01 04:10:07;;;;;;;22.20;9.30;;;;;;;3.66;88.64;98113.91;5068735;28;20045;-40
2023/04/01 04:12:33;;;;;;;15.20;8.80;;;;;;;3.68;88.42;98117.25;5084757;28;20039;-40
2023/04/01 04:14:59;;;;;;;16.45;8.05;;;;;;;3.74;88.71;98122.19;5069987;28;20675;-40
2023/04/01 04:17:25;;;;;;;16.75;8.38;;;;;;;3.86;88.52;98144.94;5047927;28;20040;-40
2023/04/01 04:19:52;;;;;;;18.83;9.57;;;;;;;3.78;88.68;98144.31;5088668;28;20066;-40
2023/04/01 04:22:18;;;;;;;18.23;8.35;;;;;;;3.89;88.15;98151.69;5070718;28;20044;-41
2023/04/01 04:24:44;;;;;;;18.58;8.95;;;;;;;3.71;88.20;98155.72;5061447;28;20413;-40
2023/04/01 04:27:12;;;;;;;13.20;7.15;;;;;;;3.66;89.08;98153.28;5085012;28;20052;-41
2023/04/01 04:29:47;;;;;;;13.43;7.63;;;;;;;3.62;89.09;98149.09;5084572;28;20131;-40
2023/04/01 04:32:14;;;;;;;12.95;6.93;;;;;;;3.53;88.93;98134.00;5051508;28;20554;-41
2023/04/01 04:34:40;;;;;;;13.18;7.78;;;;;;;3.57;88.99;98161.25;5068258;28;20036;-39
2023/04/01 04:37:06;;;;;;;15.05;8.00;;;;;;;3.57;89.19;98156.13;5050906;28;20043;-40
2023/04/01 04:39:35;;;;;;;14.23;7.90;;;;;;;3.38;89.25;98127.59;5051798;28;20565;-41
2023/04/01 04:42:02;;;;;;;14.45;7.95;;;;;;;3.65;89.38;98167.03;5084461;28;20056;-41
2023/04/01 04:44:28;;;;;;;17.08;7.93;;;;;;;3.49;88.85;98142.69;5067593;28;20043;-40
2023/04/01 04:46:54;;;;;;;15.73;8.65;;;;;;;3.66;88.81;98167.84;5051135;28;20055;-40
2023/04/01 04:49:20;;;;;;;15.75;8.40;;;;;;;3.63;88.76;98158.50;5084108;28;20048;-41
2023/04/01 04:51:46;;;;;;;15.18;9.15;;;;;;;3.33;89.35;98116.63;5083949;28;20057;-40
2023/04/01 04:54:15;;;;;;;15.93;9.13;;;;;;;3.72;88.93;98171.06;5067892;28;20036;-40
2023/04/01 04:56:54;;;;;;;17.58;9.15;;;;;;;3.82;88.83;98169.06;5092786;28;20122;-40
2023/04/01 04:59:21;;;;;;;17.00;9.15;;;;;;;3.90;88.48;98181.66;5067163;28;20158;-40
2023/04/01 05:01:58;;;;;;;14.82;8.68;;;;;;;4.03;88.46;98185.53;5067859;28;20040;-40
2023/04/01 05:04:24;;;;;;;18.20;8.60;;;;;;;4.07;88.26;98179.41;5050488;28;20774;-41
2023/04/01 05:06:51;;;;;;;15.38;8.45;;;;;;;3.84;87.97;98150.13;5086507;28;20036;-40
2023/04/01 05:09:18;;;;;;;18.00;8.82;;;;;;;4.18;87.55;98192.75;5067029;28;20045;-40
2023/04/01 05:11:46;;;;;;;15.60;8.95;;;;;;;4.14;87.53;98168.00;5083857;28;20044;-41
2023/04/01 05:14:16;;;;;;;16.40;8.35;;;;;;;4.13;86.83;98169.75;5050715;28;20032;-42
2023/04/01 05:16:46;;;;;;;16.30;8.45;;;;;;;4.23;87.10;98196.84;5067081;28;20036;-41
2023/04/01 05:19:12;;;;;;;17.45;9.10;;;;;;;4.12;86.86;98198.94;5066547;28;20093;-41
2023/04/01 05:21:38;;;;;;;16.58;8.20;;;;;;;4.05;87.14;98204.31;5067098;28;20089;-41
2023/04/01 05:24:09;;;;;;;18.88;9.57;;;;;;;3.92;86.77;98169.59;5066509;28;20048;-40
2023/04/01 05:26:36;;;;;;;19.45;9.65;;;;;;;4.25;87.09;98202.78;5045593;28;20574;-40
2023/04/01 05:29:04;;;;;;;16.85;8.82;;;;;;;4.38;86.81;98208.38;5054460;28;20471;-40
2023/04/01 05:31:30;;;;;;;15.35;8.80;;;;;;;4.53;86.54;98202.72;5093584;28;20047;-40
2023/04/01 05:33:57;;;;;;;14.75;8.10;;;;;;;4.66;86.10;98205.69;5070070;28;20143;-40
2023/04/01 05:36:23;;;;;;;18.55;9.35;;;;;;;4.48;85.41;98148.00;5102148;28;20131;-40
2023/04/01 05:38:50;;;;;;;15.20;9.02;;;;;;;4.71;84.99;98172.09;5084600;28;20068;-40
2023/04/01 05:41:18;;;;;;;16.17;8.65;;;;;;;4.95;84.40;98205.53;5103907;28;20036;-40
2023/04/01 05:43:45;;;;;;;15.70;8.30;;;;;;;5.06;84.03;98202.56;5086850;28;20130;-39
2023/04/01 05:46:30;;;;;;;14.35;8.15;;;;;;;4.90;83.36;98178.25;5088541;28;20043;-40
2023/04/01 05:49:18;;;;;;;19.58;8.80;;;;;;;5.11;82.97;98214.38;5068289;28;20070;-40
2023/04/01 05:51:44;;;;;;;16.33;8.35;;;;;;;4.88;82.56;98186.03;5083565;28;20055;-40
2023/04/01 05:54:11;;;;;;;15.13;8.70;;;;;;;5.10;82.19;98210.13;5049327;28;20049;-40
2023/04/01 05:56:37;;;;;;;15.05;8.50;;;;;;;5.35;82.22;98217.81;5083960;28;20067;-40
2023/04/01 05:59:03;;;;;;;15.15;8.35;;;;;;;5.37;81.28;98213.44;5098626;28;20040;-40
2023/04/01 06:01:29;;;;;;;14.45;8.50;;;;;;;5.28;81.50;98220.66;5071566;28;20040;-40
2023/04/01 06:03:56;;;;;;;14.48;8.98;;;;;;;5.48;80.72;98225.94;5072538;28;20074;-40
2023/04/01 06:06:27;;;;;;;15.23;8.10;;;;;;;5.58;80.08;98231.56;5072720;28;20040;-41
2023/04/01 06:09:06;;;;;;;14.23;7.82;;;;;;;5.61;80.00;98226.28;5066735;28;20036;-41
2023/04/01 06:11:44;;;;;;;16.60;8.07;;;;;;;5.75;79.12;98226.63;5069153;28;20093;-39
2023/04/01 06:14:33;;;;;;;11.23;7.20;;;;;;;5.90;78.54;98215.75;5082390;28;20059;-39
2023/04/01 06:17:34;;;;;;;14.07;8.52;;;;;;;6.01;78.04;98199.84;5020846;28;20052;-42
2023/04/01 06:20:12;;;;;;;12.88;7.78;;;;;;;6.39;76.94;98224.94;5097390;28;20036;-40
2023/04/01 06:22:44;;;;;;;13.35;8.02;;;;;;;6.60;76.03;98220.63;5068453;28;20131;-41
2023/04/01 06:25:40;;;;;;;14.63;7.22;;;;;;;6.75;75.27;98228.56;5065568;28;20053;-39
2023/04/01 06:28:15;;;;;;;12.85;6.88;;;;;;;7.00;74.55;98219.78;5044348;28;20048;-42
2023/04/01 06:31:03;;;;;;;12.40;7.50;;;;;;;7.31;73.53;98221.88;5077190;28;20040;-40
2023/04/01 06:33:46;;;;;;;13.85;7.68;;;;;;;7.50;73.08;98230.47;5067798;28;20047;-40
2023/04/01 06:36:41;;;;;;;16.73;8.45;;;;;;;7.64;72.28;98235.88;5079713;28;20074;-40
2023/04/01 06:39:27;;;;;;;15.68;7.38;;;;;;;7.64;71.54;98234.09;5070636;28;20396;-42
2023/04/01 06:42:18;;;;;;;18.45;7.20;;;;;;;7.57;70.50;98243.06;5075426;28;20059;-37
2023/04/01 06:45:05;;;;;;;11.45;6.55;;;;;;;7.13;69.74;98242.44;5049686;28;20415;-41
2023/04/01 06:48:18;;;;;;;23.65;8.02;;;;;;;7.01;69.70;98250.75;5073066;28;20038;-40
2023/04/01 06:51:27;;;;;;;14.07;7.38;;;;;;;7.12;69.07;98245.06;5070084;28;20102;-39
2023/04/01 06:54:20;;;;;;;15.40;7.68;;;;;;;7.30;68.93;98240.88;5055646;28;20051;-40
2023/04/01 06:57:33;;;;;;;11.23;7.10;;;;;;;7.53;68.85;98244.13;5065363;28;20125;-40
2023/04/01 07:00:17;;;;;;;13.27;7.60;;;;;;;7.80;68.18;98254.13;5069997;28;20123;-40
2023/04/01 07:02:53;;;;;;;14.38;7.45;;;;;;;7.51;67.12;98227.81;5031689;28;20151;-45
2023/04/01 07:05:20;;;;;;;15.75;8.07;;;;;;;7.58;68.09;98262.00;5064777;28;20055;-40
2023/04/01 07:07:55;;;;;;;13.75;7.63;;;;;;;7.56;67.63;98261.22;5089547;28;20047;-40
2023/04/01 07:10:54;;;;;;;13.85;7.78;;;;;;;7.43;67.85;98254.94;5072869;28;20040;-41
2023/04/01 07:13:42;;;;;;;15.60;8.00;;;;;;;7.65;67.75;98260.81;5086129;28;20083;-42
2023/04/01 07:16:34;;;;;;;15.73;8.02;;;;;;;7.87;67.37;98250.31;5056306;28;20059;-40
2023/04/01 07:19:03;;;;;;;18.25;8.63;;;;;;;7.97;66.92;98254.16;5078904;28;20106;-41
2023/04/01 07:21:57;;;;;;;18.13;8.77;;;;;;;8.08;66.82;98254.50;5048936;28;20052;-40
2023/04/01 07:24:36;;;;;;;16.33;8.93;;;;;;;8.34;66.41;98271.41;5073554;28;20040;-40
2023/04/01 07:27:09;;;;;;;15.93;8.75;;;;;;;8.52;65.43;98256.75;5071081;28;20075;-41
2023/04/01 07:29:37;;;;;;;18.60;8.63;;;;;;;8.73;65.11;98269.50;5067719;28;20169;-40
2023/04/01 07:32:22;;;;;;;16.92;8.88;;;;;;;9.03;64.00;98269.69;5079922;28;20806;-40
2023/04/01 07:35:01;;;;;;;18.65;9.20;;;;;;;9.37;63.71;98267.97;5085929;28;20038;-40
2023/04/01 07:37:52;;;;;;;12.30;7.45;;;;;;;10.00;61.90;98263.69;5068946;28;20047;-40
2023/04/01 07:40:37;;;;;;;;;;;;;;;11.01;60.28;98265.69;5101777;27;20098;-40
2023/04/01 07:43:09;;;;;;;15.23;8.15;;;;;;;11.51;58.53;98267.06;5072147;28;19934;-43
2023/04/01 07:45:42;;;;;;;17.80;8.60;;;;;;;11.70;58.13;98269.38;5085726;28;20105;-40
2023/04/01 07:48:23;;;;;;;14.88;8.73;;;;;;;11.39;58.16;98276.44;5079786;28;20043;-41
2023/04/01 07:51:07;;;;;;;15.05;8.90;;;;;;;11.41;57.56;98277.16;5069979;28;20036;-40
2023/04/01 07:53:50;;;;;;;14.52;9.15;;;;;;;11.03;57.33;98269.06;5051884;28;20355;-40
2023/04/01 07:56:24;;;;;;;17.02;9.00;;;;;;;10.91;56.81;98253.31;5069834;28;20044;-41
2023/04/01 07:59:12;;;;;;;15.73;9.70;;;;;;;11.02;55.68;98282.16;5089252;28;20079;-42
2023/04/01 08:02:03;;;;;;;13.52;8.43;;;;;;;11.17;55.93;98283.84;5088827;28;20470;-40
2023/04/01 08:04:53;;;;;;;15.80;9.15;;;;;;;11.08;55.65;98292.19;5078004;28;20063;-42
2023/04/01 08:07:28;;;;;;;16.73;9.48;;;;;;;10.76;55.24;98294.06;5082770;28;20093;-40
2023/04/01 08:10:32;;;;;;;18.20;9.90;;;;;;;10.83;55.46;98291.94;5047054;28;20147;-40
2023/04/01 08:13:38;;;;;;;19.15;9.60;;;;;;;10.83;55.56;98286.75;5056935;28;20048;-41
2023/04/01 08:16:29;;;;;;;21.45;10.20;;;;;;;10.40;55.33;98293.53;5062285;28;20050;-41
2023/04/01 08:19:09;;;;;;;18.60;10.60;;;;;;;10.25;56.63;98291.78;5047894;28;20083;-41
2023/04/01 08:21:46;;;;;;;17.17;10.20;;;;;;;10.08;56.42;98297.88;5050527;28;20040;-41
2023/04/01 08:24:27;;;;;;;18.83;9.50;;;;;;;10.08;56.15;98292.69;5046259;28;20048;-40
2023/04/01 08:26:56;;;;;;;19.60;9.88;;;;;;;10.34;56.24;98292.13;5046233;28;20052;-41
2023/04/01 08:29:44;;;;;;;21.42;10.32;;;;;;;10.66;55.65;98299.84;5022428;28;20793;-40
2023/04/01 08:32:23;;;;;;;20.20;9.05;;;;;;;10.69;54.82;98274.53;5046620;28;20528;-40
2023/04/01 08:35:15;;;;;;;15.45;9.40;;;;;;;11.59;53.65;98296.06;5045288;28;20058;-41
2023/04/01 08:37:43;;;;;;;14.73;9.27;;;;;;;12.18;52.30;98299.38;5034626;28;20139;-40
2023/04/01 08:40:34;;;;;;;18.40;8.70;;;;;;;12.68;51.16;98294.38;5036973;28;20803;-40
2023/04/01 08:43:11;;;;;;;13.10;8.85;;;;;;;13.87;49.77;98300.22;5026395;28;20053;-39
2023/04/01 08:45:56;;;;;;;17.02;8.75;;;;;;;15.19;46.31;98298.44;5058569;28;20044;-40
2023/04/01 08:48:25;;;;;;;12.45;7.95;;;;;;;16.24;44.51;98300.78;5065486;28;20422;-41
2023/04/01 08:51:21;;;;;;;14.15;8.95;;;;;;;18.35;40.81;98297.94;5053271;28;20040;-40
2023/04/01 08:54:07;;;;;;;14.80;7.97;;;;;;;19.64;37.78;98305.47;5063530;28;20139;-47
2023/04/01 08:57:03;;;;;;;13.65;8.57;;;;;;;20.73;34.99;98305.50;5082499;28;20031;-39
2023/04/01 08:59:37;;;;;;;17.95;8.57;;;;;;;22.28;34.33;98318.06;5083014;28;20047;-51
2023/04/01 09:02:36;;;;;;;16.23;9.43;;;;;;;23.42;32.51;98306.66;5065450;28;20481;-53
2023/04/01 09:05:36;;;;;;;16.23;9.40;;;;;;;23.91;30.56;98311.91;5064147;28;20413;-44
2023/04/01 09:08:24;;;;;;;14.82;8.88;;;;;;;24.46;28.71;98318.03;5073971;27;20059;-58
2023/04/01 09:11:26;;;;;;;13.02;8.48;;;;;;;24.06;28.10;98313.69;5073269;28;20055;-41
2023/04/01 09:14:24;;;;;;;15.45;9.40;;;;;;;23.67;27.92;98320.75;5075942;28;20048;-42
2023/04/01 09:17:20;;;;;;;14.85;8.98;;;;;;;24.46;27.65;98315.38;5066194;28;20126;-46
2023/04/01 09:20:09;;;;;;;8.25;5.50;;;;;;;22.53;26.32;98321.59;5083468;28;20036;-54
2023/04/01 09:23:04;;;;;;;10.70;6.43;;;;;;;22.03;26.34;98288.00;5065119;28;20509;-42
2023/04/01 09:25:43;;;;;;;9.07;6.28;;;;;;;23.70;25.35;98319.59;5064475;28;20049;-63
2023/04/01 09:28:20;;;;;;;8.95;6.35;;;;;;;24.84;24.44;98310.16;5078454;28;20041;-58
2023/04/01 09:30:57;;;;;;;8.67;5.63;;;;;;;25.01;24.69;98311.75;5052821;28;20044;-64
2023/04/01 09:33:32;;;;;;;11.18;5.90;;;;;;;23.75;24.57;98323.41;5074375;28;20516;-56
2023/04/01 09:36:04;;;;;;;9.18;5.60;;;;;;;23.49;25.06;98323.59;5067668;28;20036;-54
2023/04/01 09:38:43;;;;;;;9.18;5.75;;;;;;;23.65;24.77;98325.41;5048885;28;20067;-51
2023/04/01 09:41:31;;;;;;;9.77;6.43;;;;;;;23.45;24.81;98298.38;5058743;28;20179;-56
2023/04/01 09:44:35;;;;;;;;;;;;;;;24.83;24.21;98327.94;5054722;28;20040;-47
2023/04/01 09:47:49;;;;;;;10.63;6.47;;;;;;;25.84;23.39;98333.00;5067316;28;20463;-46
2023/04/01 09:50:57;;;;;;;10.20;7.00;;;;;;;25.29;23.36;98335.94;5086063;28;20101;-49
2023/04/01 09:53:39;;;;;;;8.65;7.28;;;;;;;24.50;24.50;98334.44;5069952;28;20751;-43
2023/04/01 09:56:45;;;;;;;11.00;7.22;;;;;;;25.10;23.94;98339.09;5100168;28;20036;-42
2023/04/01 09:59:33;;;;;;;14.23;7.40;;;;;;;25.90;23.19;98342.94;5064718;28;20044;-43
2023/04/01 10:02:46;;;;;;;12.88;7.70;;;;;;;26.70;21.90;98339.47;5062867;28;20058;-42
2023/04/01 10:05:52;;;;;;;14.70;7.85;;;;;;;28.66;20.78;98334.06;5038085;28;20055;-41
2023/04/01 10:08:51;;;;;;;12.13;8.80;;;;;;;28.67;20.48;98335.75;5079023;28;20125;-43
2023/04/01 10:11:30;;;;;;;11.27;8.75;;;;;;;25.76;22.32;98346.38;5076122;28;20067;-43
2023/04/01 10:14:14;;;;;;;12.75;8.82;;;;;;;22.67;25.14;98348.28;5068089;28;20044;-42
2023/04/01 10:17:02;;;;;;;14.27;9.02;;;;;;;23.99;24.43;98343.72;5080170;28;20076;-41
2023/04/01 10:19:31;;;;;;;12.35;8.43;;;;;;;26.24;22.19;98352.22;5077929;28;20199;-41
2023/04/01 10:22:19;;;;;;;14.95;9.18;;;;;;;25.47;22.89;98347.13;5077909;28;20044;-43
2023/04/01 10:24:52;;;;;;;11.80;7.75;;;;;;;24.87;22.70;98344.38;5064676;28;20047;-42
2023/04/01 10:28:05;;;;;;;13.32;8.23;;;;;;;25.26;22.75;98336.31;5065116;28;20044;-43
2023/04/01 10:30:57;;;;;;;10.30;6.90;;;;;;;25.31;21.94;98373.88;5061775;28;20148;-41
2023/04/01 10:33:46;;;;;;;11.38;7.47;;;;;;;24.63;22.30;98369.25;5069992;28;20043;-43
2023/04/01 10:36:44;;;;;;;8.35;5.28;;;;;;;24.96;21.79;98367.31;5064892;28;20033;-43
2023/04/01 10:39:16;;;;;;;;;;;;;;;24.94;22.10;98365.81;5049930;28;20101;-41
2023/04/01 10:42:11;;;;;;;7.60;6.22;;;;;;;25.92;21.30;98353.38;5081256;28;19920;-44
2023/04/01 10:45:16;;;;;;;15.23;6.10;;;;;;;27.58;20.33;98363.22;5041726;28;20040;-41
2023/04/01 10:48:07;;;;;;;10.75;5.97;;;;;;;28.46;19.46;98366.09;5047244;28;20093;-40
2023/04/01 10:50:54;;;;;;;7.50;5.63;;;;;;;27.92;19.53;98365.94;5044835;28;20056;-40
2023/04/01 10:53:40;;;;;;;8.00;5.97;;;;;;;26.79;20.13;98370.38;5063416;28;20042;-41
2023/04/01 10:56:50;;;;;;;7.20;5.45;;;;;;;27.13;20.02;98367.06;5073840;28;20039;-42
2023/04/01 10:59:56;;;;;;;7.03;5.47;;;;;;;27.59;19.97;98371.03;5074763;28;20097;-44
2023/04/01 11:03:11;;;;;;;7.43;4.97;;;;;;;27.17;19.61;98381.69;5082304;28;20070;-41
2023/04/01 11:06:24;;;;;;;9.20;5.03;;;;;;;26.37;20.39;98377.22;5065600;28;20056;-40
2023/04/01 11:09:23;;;;;;;9.30;5.32;;;;;;;26.55;20.70;98367.00;5070627;28;20048;-43
2023/04/01 11:12:00;;;;;;;9.52;5.70;;;;;;;27.42;20.16;98365.09;5073924;28;20526;-42
2023/04/01 11:15:03;;;;;;;7.38;5.68;;;;;;;28.85;19.21;98370.78;5061395;28;20364;-42
2023/04/01 11:17:35;;;;;;;10.18;6.38;;;;;;;27.01;20.41;98372.06;5073115;28;20045;-42
2023/04/01 11:20:30;;;;;;;10.07;5.30;;;;;;;25.59;20.80;98368.84;5064600;28;20040;-40
2023/04/01 11:23:15;;;;;;;9.70;5.03;;;;;;;25.91;21.20;98376.50;5074897;28;20048;-39
2023/04/01 11:25:44;;;;;;;7.78;5.10;;;;;;;24.58;21.92;98366.31;5065261;28;20040;-40
2023/04/01 11:28:35;;;;;;;12.03;5.63;;;;;;;22.28;23.64;98357.75;5091866;28;20162;-41
2023/04/01 11:31:33;;;;;;;7.07;4.93;;;;;;;21.78;24.25;98369.03;5088137;28;20124;-41
2023/04/01 11:34:02;;;;;;;10.95;5.45;;;;;;;20.38;26.13;98365.34;5058849;28;20039;-41
2023/04/01 11:36:51;;;;;;;7.40;5.13;;;;;;;20.01;26.91;98360.88;5071707;28;20302;-41
2023/04/01 11:39:44;;;;;;;7.60;5.20;;;;;;;20.14;26.77;98369.31;5077876;28;20572;-42
2023/04/01 11:42:31;;;;;;;7.85;5.40;;;;;;;19.29;27.94;98368.47;5066465;28;20147;-41
2023/04/01 11:45:39;;;;;;;9.52;4.70;;;;;;;19.16;27.82;98373.19;5073174;28;20079;-42
2023/04/01 11:48:22;;;;;;;5.28;3.40;;;;;;;18.22;28.43;98387.63;5076136;28;20052;-41
2023/04/01 11:51:16;;;;;;;8.50;4.75;;;;;;;16.88;30.41;98369.97;5076801;28;20122;-41
2023/04/01 11:54:00;;;;;;;7.32;3.97;;;;;;;16.34;30.83;98374.34;5072674;28;20040;-41
2023/04/01 11:56:37;;;;;;;8.35;5.13;;;;;;;15.85;31.75;98375.53;5081715;28;20043;-42
2023/04/01 11:59:43;;;;;;;8.95;4.35;;;;;;;15.81;31.98;98373.25;5063505;28;20488;-41
2023/04/01 12:02:27;;;;;;;8.80;4.20;;;;;;;15.38;32.57;98368.63;5059075;28;20307;-41
2023/04/01 12:05:21;;;;;;;7.25;4.35;;;;;;;15.27;32.88;98372.03;5078433;28;20044;-40
2023/04/01 12:07:55;;;;;;;9.23;4.30;;;;;;;15.34;33.06;98374.19;5085023;28;20043;-42
2023/04/01 12:10:46;;;;;;;9.30;4.95;;;;;;;15.46;32.91;98370.66;5056915;28;20150;-39
2023/04/01 12:13:16;;;;;;;10.98;5.00;;;;;;;15.62;33.30;98369.41;5071182;28;20063;-39
2023/04/01 12:16:02;;;;;;;11.60;5.50;;;;;;;15.45;33.40;98375.06;5082704;28;20032;-43
2023/04/01 12:18:34;;;;;;;7.15;4.40;;;;;;;15.21;33.81;98382.97;5077015;28;20095;-41
2023/04/01 12:21:38;;;;;;;8.35;3.60;;;;;;;14.74;34.22;98381.19;5076221;28;20143;-41
2023/04/01 12:24:35;;;;;;;11.73;4.65;;;;;;;14.25;35.29;98383.78;5075951;28;20137;-40